Wichita Mid Continent Airport
KICT : now visible

Airfield :











YOU CAN JOIN US ON...

 
LOGIN :

Register | Disclaimer

   EN    FR    IT 

 









Legend :    VFR   Marginal VFR   IFR   Intensive IFR   Very Intensive IFR
Visi :
Ceiling :
>= 8 km
>= 3000ft
5 to 8 km
1000 to 3000 ft
1500m to 5 km
500 to 1000 ft
800 to 1500m
200 to 500 ft
< 800m
< 200 ft
Symbols :   Thunderstorms  Fog  Heavy snow  Heavy precipitations  Wind > 20 kt







- Airport Elevation : 1333 ft
- IATA code : ICT


KICT - Wichita Mid Continent

CURRENT METAR :
  • 301453Z 13005KT 10SM FEW120 SCT160 SCT250 28/19 A2998 RMK AO2 SLP137 ACC DSNT SE-S T02780189 50002

EXPIRED METARs :
  • 301353Z 07005KT 10SM FEW060 FEW120 SCT160 SCT250 26/19 A2999 RMK AO2 SLP141 ACC DSNT SE-S T02560189
  • 301253Z 00000KT 10SM SCT060 SCT120 BKN160 BKN250 24/20 A3000 RMK AO2 SLP144 ACC DSNT SE-S-SW T02390200

TAF KICT
Valid from the 30 at 12:00 until the 01 at 12:00 UTC


301140Z 3012/0112 22007KT P6SM BKN150 OVC300
FM301700 21007KT P6SM SCT060 OVC130
FM302000 18009KT P6SM OVC060
KZKC FIR / North America



MET'MAP, your aeronautical weather chart ! - Copyright ORBIFLY December 2007 - Disclaimer

ORBIFLY MET'MAP TEAM :

Programming & Development : Alexandra Zaïnal
Concept & Development : Baudouin d'Aumeries
Co-Development & Prog : Marc-Olivier Méhu
Technical & hardware support : Manuel Goepfert

Contact : metmap@orbifly.com




SOURCES & CREDITS :

   NOAA       Earth
Advisory